sensor_id;sensor_type;location;lat;lon;timestamp;P1;durP1;ratioP1;P2;durP2;ratioP2
64966;SDS011;51710;38.732;-121.358;2023-04-03T00:01:40;6.80;;;2.25;;
64966;SDS011;51710;38.732;-121.358;2023-04-03T00:04:06;1.58;;;0.80;;
64966;SDS011;51710;38.732;-121.358;2023-04-03T00:06:33;3.90;;;0.95;;
64966;SDS011;51710;38.732;-121.358;2023-04-03T00:09:00;6.45;;;1.67;;
64966;SDS011;51710;38.732;-121.358;2023-04-03T00:11:26;6.50;;;1.75;;
64966;SDS011;51710;38.732;-121.358;2023-04-03T00:13:52;5.68;;;1.73;;
64966;SDS011;51710;38.732;-121.358;2023-04-03T00:16:19;8.02;;;1.90;;
64966;SDS011;51710;38.732;-121.358;2023-04-03T00:18:45;4.68;;;1.35;;
64966;SDS011;51710;38.732;-121.358;2023-04-03T00:21:12;4.88;;;1.77;;
64966;SDS011;51710;38.732;-121.358;2023-04-03T00:23:39;5.28;;;1.60;;
64966;SDS011;51710;38.732;-121.358;2023-04-03T00:26:05;4.35;;;1.85;;
64966;SDS011;51710;38.732;-121.358;2023-04-03T00:28:32;5.45;;;1.65;;
64966;SDS011;51710;38.732;-121.358;2023-04-03T00:30:58;5.40;;;1.40;;
64966;SDS011;51710;38.732;-121.358;2023-04-03T00:33:24;5.88;;;1.58;;
64966;SDS011;51710;38.732;-121.358;2023-04-03T00:35:51;5.18;;;0.90;;
64966;SDS011;51710;38.732;-121.358;2023-04-03T00:38:17;2.47;;;0.90;;
64966;SDS011;51710;38.732;-121.358;2023-04-03T00:40:45;3.30;;;1.08;;
64966;SDS011;51710;38.732;-121.358;2023-04-03T00:43:20;9.32;;;2.05;;
64966;SDS011;51710;38.732;-121.358;2023-04-03T00:45:48;11.27;;;3.40;;
64966;SDS011;51710;38.732;-121.358;2023-04-03T00:48:18;4.00;;;1.25;;
64966;SDS011;51710;38.732;-121.358;2023-04-03T00:50:48;2.58;;;0.80;;
64966;SDS011;51710;38.732;-121.358;2023-04-03T00:53:19;1.95;;;0.93;;
64966;SDS011;51710;38.732;-121.358;2023-04-03T00:55:51;2.95;;;0.70;;
64966;SDS011;51710;38.732;-121.358;2023-04-03T00:58:20;3.20;;;0.90;;
64966;SDS011;51710;38.732;-121.358;2023-04-03T01:00:54;2.22;;;0.95;;
64966;SDS011;51710;38.732;-121.358;2023-04-03T01:03:23;1.45;;;0.60;;
64966;SDS011;51710;38.732;-121.358;2023-04-03T01:05:50;3.33;;;0.80;;
64966;SDS011;51710;38.732;-121.358;2023-04-03T01:08:16;1.27;;;0.90;;
64966;SDS011;51710;38.732;-121.358;2023-04-03T01:10:43;1.75;;;0.98;;
64966;SDS011;51710;38.732;-121.358;2023-04-03T01:13:26;6.20;;;1.70;;
64966;SDS011;51710;38.732;-121.358;2023-04-03T01:15:55;3.83;;;0.90;;
64966;SDS011;51710;38.732;-121.358;2023-04-03T01:18:22;4.10;;;0.77;;
64966;SDS011;51710;38.732;-121.358;2023-04-03T01:21:02;1.45;;;0.73;;
64966;SDS011;51710;38.732;-121.358;2023-04-03T01:26:31;4.20;;;1.10;;
64966;SDS011;51710;38.732;-121.358;2023-04-03T01:28:59;8.52;;;1.92;;
64966;SDS011;51710;38.732;-121.358;2023-04-03T01:31:42;2.97;;;0.80;;
64966;SDS011;51710;38.732;-121.358;2023-04-03T01:34:09;2.25;;;0.70;;
64966;SDS011;51710;38.732;-121.358;2023-04-03T01:36:35;6.40;;;1.52;;
64966;SDS011;51710;38.732;-121.358;2023-04-03T01:39:02;3.80;;;1.13;;
64966;SDS011;51710;38.732;-121.358;2023-04-03T01:41:29;7.60;;;2.33;;
64966;SDS011;51710;38.732;-121.358;2023-04-03T01:43:55;6.47;;;1.30;;
64966;SDS011;51710;38.732;-121.358;2023-04-03T01:46:22;3.13;;;0.90;;
64966;SDS011;51710;38.732;-121.358;2023-04-03T01:48:48;2.38;;;0.80;;
64966;SDS011;51710;38.732;-121.358;2023-04-03T01:51:14;2.20;;;0.82;;
64966;SDS011;51710;38.732;-121.358;2023-04-03T01:53:41;6.88;;;1.27;;
64966;SDS011;51710;38.732;-121.358;2023-04-03T01:56:07;6.95;;;2.00;;
64966;SDS011;51710;38.732;-121.358;2023-04-03T01:58:33;4.97;;;1.15;;
64966;SDS011;51710;38.732;-121.358;2023-04-03T02:01:00;7.90;;;1.77;;
64966;SDS011;51710;38.732;-121.358;2023-04-03T02:03:29;11.13;;;3.50;;
64966;SDS011;51710;38.732;-121.358;2023-04-03T02:05:56;9.27;;;2.70;;
64966;SDS011;51710;38.732;-121.358;2023-04-03T02:08:22;5.63;;;1.25;;
64966;SDS011;51710;38.732;-121.358;2023-04-03T02:10:49;4.88;;;1.15;;
64966;SDS011;51710;38.732;-121.358;2023-04-03T02:13:16;3.08;;;0.60;;
64966;SDS011;51710;38.732;-121.358;2023-04-03T02:15:43;3.83;;;0.63;;
64966;SDS011;51710;38.732;-121.358;2023-04-03T02:18:11;5.10;;;0.80;;
64966;SDS011;51710;38.732;-121.358;2023-04-03T02:20:37;2.38;;;0.70;;
64966;SDS011;51710;38.732;-121.358;2023-04-03T02:23:03;5.53;;;1.58;;
64966;SDS011;51710;38.732;-121.358;2023-04-03T02:25:30;5.35;;;1.83;;
64966;SDS011;51710;38.732;-121.358;2023-04-03T02:27:57;5.95;;;2.53;;
64966;SDS011;51710;38.732;-121.358;2023-04-03T02:30:24;4.88;;;2.33;;
64966;SDS011;51710;38.732;-121.358;2023-04-03T02:32:50;5.82;;;1.52;;
64966;SDS011;51710;38.732;-121.358;2023-04-03T02:35:16;4.38;;;2.38;;
64966;SDS011;51710;38.732;-121.358;2023-04-03T02:37:43;4.05;;;1.70;;
64966;SDS011;51710;38.732;-121.358;2023-04-03T02:40:09;4.03;;;1.35;;
64966;SDS011;51710;38.732;-121.358;2023-04-03T02:42:36;2.63;;;0.80;;
64966;SDS011;51710;38.732;-121.358;2023-04-03T02:45:03;4.25;;;1.60;;
64966;SDS011;51710;38.732;-121.358;2023-04-03T02:47:29;3.60;;;1.60;;
64966;SDS011;51710;38.732;-121.358;2023-04-03T02:49:56;3.13;;;1.30;;
64966;SDS011;51710;38.732;-121.358;2023-04-03T02:52:22;4.75;;;1.90;;
64966;SDS011;51710;38.732;-121.358;2023-04-03T02:54:48;2.60;;;0.80;;
64966;SDS011;51710;38.732;-121.358;2023-04-03T02:57:14;5.43;;;1.02;;
64966;SDS011;51710;38.732;-121.358;2023-04-03T02:59:41;1.85;;;0.90;;
64966;SDS011;51710;38.732;-121.358;2023-04-03T03:02:07;3.55;;;1.08;;
64966;SDS011;51710;38.732;-121.358;2023-04-03T03:04:34;3.75;;;0.80;;
64966;SDS011;51710;38.732;-121.358;2023-04-03T03:07:01;6.53;;;2.35;;
64966;SDS011;51710;38.732;-121.358;2023-04-03T03:09:28;5.20;;;0.93;;
64966;SDS011;51710;38.732;-121.358;2023-04-03T03:11:55;2.42;;;0.70;;
64966;SDS011;51710;38.732;-121.358;2023-04-03T03:14:23;1.50;;;0.77;;
64966;SDS011;51710;38.732;-121.358;2023-04-03T03:16:49;1.67;;;0.55;;
64966;SDS011;51710;38.732;-121.358;2023-04-03T03:19:15;0.80;;;0.30;;
64966;SDS011;51710;38.732;-121.358;2023-04-03T03:21:41;1.45;;;0.40;;
64966;SDS011;51710;38.732;-121.358;2023-04-03T03:24:08;0.40;;;0.30;;
64966;SDS011;51710;38.732;-121.358;2023-04-03T03:26:34;1.17;;;0.30;;
64966;SDS011;51710;38.732;-121.358;2023-04-03T03:29:01;0.20;;;0.20;;
64966;SDS011;51710;38.732;-121.358;2023-04-03T03:31:27;1.15;;;0.30;;
64966;SDS011;51710;38.732;-121.358;2023-04-03T03:33:54;0.20;;;0.20;;
64966;SDS011;51710;38.732;-121.358;2023-04-03T03:36:20;0.35;;;0.20;;
64966;SDS011;51710;38.732;-121.358;2023-04-03T03:38:46;0.30;;;0.30;;
64966;SDS011;51710;38.732;-121.358;2023-04-03T03:41:13;0.60;;;0.57;;
64966;SDS011;51710;38.732;-121.358;2023-04-03T03:43:39;0.32;;;0.20;;
64966;SDS011;51710;38.732;-121.358;2023-04-03T03:46:05;0.20;;;0.20;;
64966;SDS011;51710;38.732;-121.358;2023-04-03T03:48:31;2.35;;;0.40;;
64966;SDS011;51710;38.732;-121.358;2023-04-03T03:50:58;0.20;;;0.20;;
64966;SDS011;51710;38.732;-121.358;2023-04-03T03:53:24;1.10;;;0.30;;
64966;SDS011;51710;38.732;-121.358;2023-04-03T03:55:50;0.20;;;0.20;;
64966;SDS011;51710;38.732;-121.358;2023-04-03T03:58:17;1.27;;;0.30;;
64966;SDS011;51710;38.732;-121.358;2023-04-03T04:00:43;0.40;;;0.30;;
64966;SDS011;51710;38.732;-121.358;2023-04-03T04:03:09;0.20;;;0.20;;
64966;SDS011;51710;38.732;-121.358;2023-04-03T04:05:35;0.20;;;0.20;;
64966;SDS011;51710;38.732;-121.358;2023-04-03T04:08:02;0.20;;;0.20;;
64966;SDS011;51710;38.732;-121.358;2023-04-03T04:10:28;0.20;;;0.20;;
64966;SDS011;51710;38.732;-121.358;2023-04-03T04:12:54;0.20;;;0.20;;
64966;SDS011;51710;38.732;-121.358;2023-04-03T04:15:20;0.20;;;0.20;;
64966;SDS011;51710;38.732;-121.358;2023-04-03T04:17:47;0.47;;;0.30;;
64966;SDS011;51710;38.732;-121.358;2023-04-03T04:20:13;0.45;;;0.20;;
64966;SDS011;51710;38.732;-121.358;2023-04-03T04:22:40;0.20;;;0.20;;
64966;SDS011;51710;38.732;-121.358;2023-04-03T04:25:06;0.25;;;0.25;;
64966;SDS011;51710;38.732;-121.358;2023-04-03T04:27:33;0.25;;;0.20;;
64966;SDS011;51710;38.732;-121.358;2023-04-03T04:29:59;1.92;;;0.30;;
64966;SDS011;51710;38.732;-121.358;2023-04-03T04:32:26;0.30;;;0.30;;
64966;SDS011;51710;38.732;-121.358;2023-04-03T04:34:52;0.40;;;0.40;;
64966;SDS011;51710;38.732;-121.358;2023-04-03T04:37:18;1.20;;;0.30;;
64966;SDS011;51710;38.732;-121.358;2023-04-03T04:39:45;0.43;;;0.30;;
64966;SDS011;51710;38.732;-121.358;2023-04-03T04:42:11;0.20;;;0.20;;
64966;SDS011;51710;38.732;-121.358;2023-04-03T04:44:38;0.30;;;0.30;;
64966;SDS011;51710;38.732;-121.358;2023-04-03T04:47:05;0.20;;;0.20;;
64966;SDS011;51710;38.732;-121.358;2023-04-03T04:49:31;0.20;;;0.20;;
64966;SDS011;51710;38.732;-121.358;2023-04-03T04:51:57;0.40;;;0.30;;
64966;SDS011;51710;38.732;-121.358;2023-04-03T04:54:23;0.55;;;0.32;;
64966;SDS011;51710;38.732;-121.358;2023-04-03T04:56:50;1.50;;;0.40;;
64966;SDS011;51710;38.732;-121.358;2023-04-03T04:59:16;0.43;;;0.30;;
64966;SDS011;51710;38.732;-121.358;2023-04-03T05:01:42;0.20;;;0.20;;
64966;SDS011;51710;38.732;-121.358;2023-04-03T05:04:09;1.00;;;0.30;;
64966;SDS011;51710;38.732;-121.358;2023-04-03T05:06:37;0.90;;;0.30;;
64966;SDS011;51710;38.732;-121.358;2023-04-03T05:09:04;0.35;;;0.30;;
64966;SDS011;51710;38.732;-121.358;2023-04-03T05:11:30;0.70;;;0.32;;
64966;SDS011;51710;38.732;-121.358;2023-04-03T05:13:56;0.98;;;0.25;;
64966;SDS011;51710;38.732;-121.358;2023-04-03T05:16:23;0.50;;;0.25;;
64966;SDS011;51710;38.732;-121.358;2023-04-03T05:18:49;1.38;;;0.30;;
64966;SDS011;51710;38.732;-121.358;2023-04-03T05:21:15;0.30;;;0.30;;
64966;SDS011;51710;38.732;-121.358;2023-04-03T05:23:43;2.70;;;0.20;;
64966;SDS011;51710;38.732;-121.358;2023-04-03T05:26:10;0.32;;;0.30;;
64966;SDS011;51710;38.732;-121.358;2023-04-03T05:28:36;1.70;;;0.40;;
64966;SDS011;51710;38.732;-121.358;2023-04-03T05:31:02;0.43;;;0.40;;
64966;SDS011;51710;38.732;-121.358;2023-04-03T05:33:28;0.40;;;0.40;;
64966;SDS011;51710;38.732;-121.358;2023-04-03T05:35:55;1.75;;;0.43;;
64966;SDS011;51710;38.732;-121.358;2023-04-03T05:38:21;1.88;;;0.47;;
64966;SDS011;51710;38.732;-121.358;2023-04-03T05:40:47;0.63;;;0.38;;
64966;SDS011;51710;38.732;-121.358;2023-04-03T05:43:14;0.88;;;0.45;;
64966;SDS011;51710;38.732;-121.358;2023-04-03T05:45:40;0.40;;;0.30;;
64966;SDS011;51710;38.732;-121.358;2023-04-03T05:48:06;0.40;;;0.40;;
64966;SDS011;51710;38.732;-121.358;2023-04-03T05:50:32;0.30;;;0.30;;
64966;SDS011;51710;38.732;-121.358;2023-04-03T05:52:59;1.35;;;0.30;;
64966;SDS011;51710;38.732;-121.358;2023-04-03T05:55:27;3.95;;;0.50;;
64966;SDS011;51710;38.732;-121.358;2023-04-03T05:57:53;0.93;;;0.40;;
64966;SDS011;51710;38.732;-121.358;2023-04-03T06:00:20;1.38;;;0.82;;
64966;SDS011;51710;38.732;-121.358;2023-04-03T06:02:46;0.30;;;0.30;;
64966;SDS011;51710;38.732;-121.358;2023-04-03T06:05:12;1.20;;;0.30;;
64966;SDS011;51710;38.732;-121.358;2023-04-03T06:07:39;0.65;;;0.40;;
64966;SDS011;51710;38.732;-121.358;2023-04-03T06:10:06;0.47;;;0.40;;
64966;SDS011;51710;38.732;-121.358;2023-04-03T06:12:34;0.98;;;0.43;;
64966;SDS011;51710;38.732;-121.358;2023-04-03T06:15:00;0.85;;;0.50;;
64966;SDS011;51710;38.732;-121.358;2023-04-03T06:17:27;0.90;;;0.40;;
64966;SDS011;51710;38.732;-121.358;2023-04-03T06:19:54;0.38;;;0.32;;
64966;SDS011;51710;38.732;-121.358;2023-04-03T06:22:23;1.02;;;0.40;;
64966;SDS011;51710;38.732;-121.358;2023-04-03T06:24:50;0.43;;;0.30;;
64966;SDS011;51710;38.732;-121.358;2023-04-03T06:27:17;0.70;;;0.70;;
64966;SDS011;51710;38.732;-121.358;2023-04-03T06:29:43;1.42;;;0.50;;
64966;SDS011;51710;38.732;-121.358;2023-04-03T06:32:10;0.60;;;0.40;;
64966;SDS011;51710;38.732;-121.358;2023-04-03T06:34:36;0.75;;;0.30;;
64966;SDS011;51710;38.732;-121.358;2023-04-03T06:37:03;1.08;;;0.30;;
64966;SDS011;51710;38.732;-121.358;2023-04-03T06:39:29;0.65;;;0.50;;
64966;SDS011;51710;38.732;-121.358;2023-04-03T06:41:55;1.05;;;0.30;;
64966;SDS011;51710;38.732;-121.358;2023-04-03T06:44:22;1.75;;;0.50;;
64966;SDS011;51710;38.732;-121.358;2023-04-03T06:46:48;0.50;;;0.40;;
64966;SDS011;51710;38.732;-121.358;2023-04-03T06:49:14;2.13;;;0.40;;
64966;SDS011;51710;38.732;-121.358;2023-04-03T06:51:41;3.85;;;0.40;;
64966;SDS011;51710;38.732;-121.358;2023-04-03T06:54:07;0.60;;;0.32;;
64966;SDS011;51710;38.732;-121.358;2023-04-03T06:56:34;1.20;;;0.50;;
64966;SDS011;51710;38.732;-121.358;2023-04-03T06:59:00;0.85;;;0.40;;
64966;SDS011;51710;38.732;-121.358;2023-04-03T07:01:27;2.97;;;0.47;;
64966;SDS011;51710;38.732;-121.358;2023-04-03T07:03:55;0.68;;;0.40;;
64966;SDS011;51710;38.732;-121.358;2023-04-03T07:06:21;1.20;;;0.30;;
64966;SDS011;51710;38.732;-121.358;2023-04-03T07:08:48;2.65;;;0.40;;
64966;SDS011;51710;38.732;-121.358;2023-04-03T07:11:14;0.45;;;0.30;;
64966;SDS011;51710;38.732;-121.358;2023-04-03T07:13:41;1.42;;;0.30;;
64966;SDS011;51710;38.732;-121.358;2023-04-03T07:16:08;0.30;;;0.30;;
64966;SDS011;51710;38.732;-121.358;2023-04-03T07:18:34;0.32;;;0.30;;
64966;SDS011;51710;38.732;-121.358;2023-04-03T07:21:01;1.95;;;0.50;;
64966;SDS011;51710;38.732;-121.358;2023-04-03T07:23:28;0.52;;;0.40;;
64966;SDS011;51710;38.732;-121.358;2023-04-03T07:25:54;1.35;;;0.40;;
64966;SDS011;51710;38.732;-121.358;2023-04-03T07:28:21;2.22;;;0.40;;
64966;SDS011;51710;38.732;-121.358;2023-04-03T07:30:52;3.40;;;0.40;;
64966;SDS011;51710;38.732;-121.358;2023-04-03T07:33:30;0.75;;;0.30;;
64966;SDS011;51710;38.732;-121.358;2023-04-03T07:35:57;0.57;;;0.43;;
64966;SDS011;51710;38.732;-121.358;2023-04-03T07:38:23;1.70;;;0.60;;
64966;SDS011;51710;38.732;-121.358;2023-04-03T07:40:51;1.00;;;0.38;;
64966;SDS011;51710;38.732;-121.358;2023-04-03T07:43:18;1.13;;;0.30;;
64966;SDS011;51710;38.732;-121.358;2023-04-03T07:45:46;0.60;;;0.45;;
64966;SDS011;51710;38.732;-121.358;2023-04-03T07:48:17;2.75;;;0.50;;
64966;SDS011;51710;38.732;-121.358;2023-04-03T07:50:45;0.88;;;0.38;;
64966;SDS011;51710;38.732;-121.358;2023-04-03T07:53:12;0.60;;;0.30;;
64966;SDS011;51710;38.732;-121.358;2023-04-03T07:55:39;0.45;;;0.35;;
64966;SDS011;51710;38.732;-121.358;2023-04-03T07:58:09;1.45;;;0.25;;
64966;SDS011;51710;38.732;-121.358;2023-04-03T08:00:37;1.63;;;0.50;;
64966;SDS011;51710;38.732;-121.358;2023-04-03T08:03:04;0.85;;;0.40;;
64966;SDS011;51710;38.732;-121.358;2023-04-03T08:05:38;0.85;;;0.38;;
64966;SDS011;51710;38.732;-121.358;2023-04-03T08:08:05;2.17;;;0.50;;
64966;SDS011;51710;38.732;-121.358;2023-04-03T08:10:32;1.05;;;0.40;;
64966;SDS011;51710;38.732;-121.358;2023-04-03T08:12:59;2.78;;;0.40;;
64966;SDS011;51710;38.732;-121.358;2023-04-03T08:15:26;0.38;;;0.30;;
64966;SDS011;51710;38.732;-121.358;2023-04-03T08:17:53;1.13;;;0.40;;
64966;SDS011;51710;38.732;-121.358;2023-04-03T08:20:20;1.90;;;0.40;;
64966;SDS011;51710;38.732;-121.358;2023-04-03T08:22:46;0.20;;;0.20;;
64966;SDS011;51710;38.732;-121.358;2023-04-03T08:25:12;2.63;;;0.30;;
64966;SDS011;51710;38.732;-121.358;2023-04-03T08:27:39;3.03;;;0.80;;
64966;SDS011;51710;38.732;-121.358;2023-04-03T08:30:06;0.82;;;0.38;;
64966;SDS011;51710;38.732;-121.358;2023-04-03T08:32:34;0.30;;;0.30;;
64966;SDS011;51710;38.732;-121.358;2023-04-03T08:35:01;0.90;;;0.30;;
64966;SDS011;51710;38.732;-121.358;2023-04-03T08:37:28;2.13;;;0.40;;
64966;SDS011;51710;38.732;-121.358;2023-04-03T08:39:55;0.20;;;0.20;;
64966;SDS011;51710;38.732;-121.358;2023-04-03T08:42:40;0.32;;;0.32;;
64966;SDS011;51710;38.732;-121.358;2023-04-03T08:45:13;1.08;;;0.25;;
64966;SDS011;51710;38.732;-121.358;2023-04-03T08:47:45;0.40;;;0.30;;
64966;SDS011;51710;38.732;-121.358;2023-04-03T08:50:28;2.17;;;0.40;;
64966;SDS011;51710;38.732;-121.358;2023-04-03T08:52:58;0.20;;;0.20;;
64966;SDS011;51710;38.732;-121.358;2023-04-03T08:58:16;1.58;;;0.30;;
64966;SDS011;51710;38.732;-121.358;2023-04-03T09:03:17;1.30;;;0.33;;
64966;SDS011;51710;38.732;-121.358;2023-04-03T09:08:36;3.63;;;0.32;;
64966;SDS011;51710;38.732;-121.358;2023-04-03T09:13:41;1.23;;;0.40;;
64966;SDS011;51710;38.732;-121.358;2023-04-03T09:16:27;0.88;;;0.30;;
64966;SDS011;51710;38.732;-121.358;2023-04-03T09:19:20;3.28;;;0.35;;
64966;SDS011;51710;38.732;-121.358;2023-04-03T09:24:47;0.70;;;0.32;;
64966;SDS011;51710;38.732;-121.358;2023-04-03T09:27:22;1.65;;;0.28;;
64966;SDS011;51710;38.732;-121.358;2023-04-03T09:29:48;1.65;;;0.30;;
64966;SDS011;51710;38.732;-121.358;2023-04-03T09:32:19;0.60;;;0.28;;
64966;SDS011;51710;38.732;-121.358;2023-04-03T09:34:59;0.35;;;0.30;;
64966;SDS011;51710;38.732;-121.358;2023-04-03T09:37:37;0.40;;;0.22;;
64966;SDS011;51710;38.732;-121.358;2023-04-03T09:40:04;0.20;;;0.20;;
64966;SDS011;51710;38.732;-121.358;2023-04-03T09:42:31;0.20;;;0.20;;
64966;SDS011;51710;38.732;-121.358;2023-04-03T09:45:02;1.00;;;0.30;;
64966;SDS011;51710;38.732;-121.358;2023-04-03T09:52:43;0.40;;;0.30;;
64966;SDS011;51710;38.732;-121.358;2023-04-03T09:55:15;0.22;;;0.22;;
64966;SDS011;51710;38.732;-121.358;2023-04-03T09:57:43;1.88;;;0.43;;
64966;SDS011;51710;38.732;-121.358;2023-04-03T10:02:54;0.38;;;0.20;;
64966;SDS011;51710;38.732;-121.358;2023-04-03T10:05:34;0.20;;;0.20;;
64966;SDS011;51710;38.732;-121.358;2023-04-03T10:08:08;0.28;;;0.20;;
64966;SDS011;51710;38.732;-121.358;2023-04-03T10:10:37;0.73;;;0.32;;
64966;SDS011;51710;38.732;-121.358;2023-04-03T10:13:10;0.77;;;0.30;;
64966;SDS011;51710;38.732;-121.358;2023-04-03T10:15:43;1.08;;;0.20;;
64966;SDS011;51710;38.732;-121.358;2023-04-03T10:24:07;0.28;;;0.28;;
64966;SDS011;51710;38.732;-121.358;2023-04-03T10:26:37;0.77;;;0.30;;
64966;SDS011;51710;38.732;-121.358;2023-04-03T10:34:42;0.85;;;0.30;;
64966;SDS011;51710;38.732;-121.358;2023-04-03T10:45:26;0.32;;;0.25;;
64966;SDS011;51710;38.732;-121.358;2023-04-03T10:48:16;1.45;;;0.30;;
64966;SDS011;51710;38.732;-121.358;2023-04-03T11:01:47;1.02;;;0.63;;
64966;SDS011;51710;38.732;-121.358;2023-04-03T11:04:20;0.10;;;0.10;;
64966;SDS011;51710;38.732;-121.358;2023-04-03T11:07:00;0.20;;;0.20;;
64966;SDS011;51710;38.732;-121.358;2023-04-03T11:09:34;0.20;;;0.20;;
64966;SDS011;51710;38.732;-121.358;2023-04-03T11:12:17;0.38;;;0.38;;
64966;SDS011;51710;38.732;-121.358;2023-04-03T11:14:53;0.20;;;0.20;;
64966;SDS011;51710;38.732;-121.358;2023-04-03T11:17:31;0.43;;;0.30;;
64966;SDS011;51710;38.732;-121.358;2023-04-03T11:22:43;0.25;;;0.20;;
64966;SDS011;51710;38.732;-121.358;2023-04-03T11:25:17;1.50;;;0.30;;
64966;SDS011;51710;38.732;-121.358;2023-04-03T11:28:03;0.60;;;0.30;;
64966;SDS011;51710;38.732;-121.358;2023-04-03T11:30:33;0.30;;;0.20;;
64966;SDS011;51710;38.732;-121.358;2023-04-03T11:36:09;0.30;;;0.30;;
64966;SDS011;51710;38.732;-121.358;2023-04-03T11:38:44;2.28;;;0.40;;
64966;SDS011;51710;38.732;-121.358;2023-04-03T11:41:13;0.40;;;0.35;;
64966;SDS011;51710;38.732;-121.358;2023-04-03T11:43:42;1.02;;;0.55;;
64966;SDS011;51710;38.732;-121.358;2023-04-03T11:58:17;0.88;;;0.20;;
64966;SDS011;51710;38.732;-121.358;2023-04-03T12:00:49;1.17;;;0.40;;
64966;SDS011;51710;38.732;-121.358;2023-04-03T12:13:37;0.85;;;0.20;;
64966;SDS011;51710;38.732;-121.358;2023-04-03T12:16:27;0.40;;;0.30;;
64966;SDS011;51710;38.732;-121.358;2023-04-03T12:19:00;3.22;;;0.30;;
64966;SDS011;51710;38.732;-121.358;2023-04-03T12:26:46;1.23;;;0.25;;
64966;SDS011;51710;38.732;-121.358;2023-04-03T12:46:02;0.55;;;0.40;;
64966;SDS011;51710;38.732;-121.358;2023-04-03T12:53:56;1.38;;;0.40;;
64966;SDS011;51710;38.732;-121.358;2023-04-03T12:56:28;0.55;;;0.30;;
64966;SDS011;51710;38.732;-121.358;2023-04-03T12:59:12;0.20;;;0.20;;
64966;SDS011;51710;38.732;-121.358;2023-04-03T13:01:42;0.55;;;0.22;;
64966;SDS011;51710;38.732;-121.358;2023-04-03T13:04:12;0.45;;;0.30;;
64966;SDS011;51710;38.732;-121.358;2023-04-03T13:06:42;0.55;;;0.30;;
64966;SDS011;51710;38.732;-121.358;2023-04-03T13:09:22;0.20;;;0.20;;
64966;SDS011;51710;38.732;-121.358;2023-04-03T13:11:56;1.73;;;0.40;;
64966;SDS011;51710;38.732;-121.358;2023-04-03T13:14:50;1.10;;;0.32;;
64966;SDS011;51710;38.732;-121.358;2023-04-03T13:17:21;0.88;;;0.40;;
64966;SDS011;51710;38.732;-121.358;2023-04-03T13:19:48;1.17;;;0.20;;
64966;SDS011;51710;38.732;-121.358;2023-04-03T13:25:05;0.30;;;0.22;;
64966;SDS011;51710;38.732;-121.358;2023-04-03T13:27:33;0.65;;;0.30;;
64966;SDS011;51710;38.732;-121.358;2023-04-03T13:30:01;1.35;;;0.55;;
64966;SDS011;51710;38.732;-121.358;2023-04-03T13:32:29;0.30;;;0.20;;
64966;SDS011;51710;38.732;-121.358;2023-04-03T13:34:57;0.82;;;0.30;;
64966;SDS011;51710;38.732;-121.358;2023-04-03T13:37:29;0.20;;;0.20;;
64966;SDS011;51710;38.732;-121.358;2023-04-03T13:40:09;1.02;;;0.30;;
64966;SDS011;51710;38.732;-121.358;2023-04-03T13:42:38;0.40;;;0.20;;
64966;SDS011;51710;38.732;-121.358;2023-04-03T13:45:10;0.38;;;0.20;;
64966;SDS011;51710;38.732;-121.358;2023-04-03T13:47:49;1.10;;;0.30;;
64966;SDS011;51710;38.732;-121.358;2023-04-03T13:50:19;0.30;;;0.30;;
64966;SDS011;51710;38.732;-121.358;2023-04-03T14:00:29;2.37;;;0.30;;
64966;SDS011;51710;38.732;-121.358;2023-04-03T14:02:59;0.95;;;0.30;;
64966;SDS011;51710;38.732;-121.358;2023-04-03T14:05:26;0.57;;;0.40;;
64966;SDS011;51710;38.732;-121.358;2023-04-03T14:07:53;1.00;;;0.40;;
64966;SDS011;51710;38.732;-121.358;2023-04-03T14:10:21;0.70;;;0.40;;
64966;SDS011;51710;38.732;-121.358;2023-04-03T14:12:48;0.57;;;0.32;;
64966;SDS011;51710;38.732;-121.358;2023-04-03T14:15:23;0.90;;;0.40;;
64966;SDS011;51710;38.732;-121.358;2023-04-03T14:17:52;1.17;;;0.32;;
64966;SDS011;51710;38.732;-121.358;2023-04-03T14:20:22;1.02;;;0.30;;
64966;SDS011;51710;38.732;-121.358;2023-04-03T14:22:50;0.52;;;0.30;;
64966;SDS011;51710;38.732;-121.358;2023-04-03T14:25:18;0.75;;;0.30;;
64966;SDS011;51710;38.732;-121.358;2023-04-03T14:27:46;0.20;;;0.20;;
64966;SDS011;51710;38.732;-121.358;2023-04-03T14:30:22;0.55;;;0.40;;
64966;SDS011;51710;38.732;-121.358;2023-04-03T14:32:52;0.30;;;0.30;;
64966;SDS011;51710;38.732;-121.358;2023-04-03T14:35:18;0.60;;;0.32;;
64966;SDS011;51710;38.732;-121.358;2023-04-03T14:37:46;0.57;;;0.28;;
64966;SDS011;51710;38.732;-121.358;2023-04-03T14:40:14;1.23;;;0.30;;
64966;SDS011;51710;38.732;-121.358;2023-04-03T14:42:42;0.43;;;0.30;;
64966;SDS011;51710;38.732;-121.358;2023-04-03T14:45:10;0.38;;;0.20;;
64966;SDS011;51710;38.732;-121.358;2023-04-03T14:47:42;0.45;;;0.30;;
64966;SDS011;51710;38.732;-121.358;2023-04-03T14:50:15;0.63;;;0.20;;
64966;SDS011;51710;38.732;-121.358;2023-04-03T14:52:43;0.43;;;0.20;;
64966;SDS011;51710;38.732;-121.358;2023-04-03T14:55:11;3.95;;;0.30;;
64966;SDS011;51710;38.732;-121.358;2023-04-03T14:57:40;0.40;;;0.20;;
64966;SDS011;51710;38.732;-121.358;2023-04-03T15:00:07;0.35;;;0.30;;
64966;SDS011;51710;38.732;-121.358;2023-04-03T15:02:46;0.20;;;0.20;;
64966;SDS011;51710;38.732;-121.358;2023-04-03T15:05:13;0.20;;;0.20;;
64966;SDS011;51710;38.732;-121.358;2023-04-03T15:07:50;0.60;;;0.20;;
64966;SDS011;51710;38.732;-121.358;2023-04-03T15:12:45;0.30;;;0.20;;
64966;SDS011;51710;38.732;-121.358;2023-04-03T15:15:13;0.47;;;0.30;;
64966;SDS011;51710;38.732;-121.358;2023-04-03T15:17:41;0.13;;;0.13;;
64966;SDS011;51710;38.732;-121.358;2023-04-03T15:20:12;0.30;;;0.20;;
64966;SDS011;51710;38.732;-121.358;2023-04-03T15:22:43;0.75;;;0.25;;
64966;SDS011;51710;38.732;-121.358;2023-04-03T15:25:10;0.20;;;0.15;;
64966;SDS011;51710;38.732;-121.358;2023-04-03T15:27:37;0.98;;;0.30;;
64966;SDS011;51710;38.732;-121.358;2023-04-03T15:30:04;0.88;;;0.20;;
64966;SDS011;51710;38.732;-121.358;2023-04-03T15:32:31;0.70;;;0.10;;
64966;SDS011;51710;38.732;-121.358;2023-04-03T15:34:59;1.75;;;0.25;;
64966;SDS011;51710;38.732;-121.358;2023-04-03T15:37:26;0.20;;;0.20;;
64966;SDS011;51710;38.732;-121.358;2023-04-03T15:39:52;0.85;;;0.30;;
64966;SDS011;51710;38.732;-121.358;2023-04-03T15:42:18;0.98;;;0.32;;
64966;SDS011;51710;38.732;-121.358;2023-04-03T15:44:45;1.02;;;0.20;;
64966;SDS011;51710;38.732;-121.358;2023-04-03T15:47:11;1.00;;;0.20;;
64966;SDS011;51710;38.732;-121.358;2023-04-03T15:49:38;0.73;;;0.47;;
64966;SDS011;51710;38.732;-121.358;2023-04-03T15:52:05;0.52;;;0.15;;
64966;SDS011;51710;38.732;-121.358;2023-04-03T15:54:31;0.40;;;0.20;;
64966;SDS011;51710;38.732;-121.358;2023-04-03T15:56:57;4.03;;;0.25;;
64966;SDS011;51710;38.732;-121.358;2023-04-03T15:59:23;0.20;;;0.20;;
64966;SDS011;51710;38.732;-121.358;2023-04-03T16:01:50;0.22;;;0.20;;
64966;SDS011;51710;38.732;-121.358;2023-04-03T16:04:18;0.13;;;0.13;;
64966;SDS011;51710;38.732;-121.358;2023-04-03T16:06:46;0.80;;;0.20;;
64966;SDS011;51710;38.732;-121.358;2023-04-03T16:09:13;0.20;;;0.20;;
64966;SDS011;51710;38.732;-121.358;2023-04-03T16:11:39;0.20;;;0.10;;
64966;SDS011;51710;38.732;-121.358;2023-04-03T16:14:06;0.57;;;0.40;;
64966;SDS011;51710;38.732;-121.358;2023-04-03T16:16:33;0.93;;;0.35;;
64966;SDS011;51710;38.732;-121.358;2023-04-03T16:19:00;0.20;;;0.20;;
64966;SDS011;51710;38.732;-121.358;2023-04-03T16:21:26;0.38;;;0.32;;